sensor_id;sensor_type;location;lat;lon;timestamp;temperature;humidity
12413;DHT22;13877;18.896;-99.222;2022-10-26T00:01:08;24.50;92.20
12413;DHT22;13877;18.896;-99.222;2022-10-26T00:03:36;24.40;93.40
12413;DHT22;13877;18.896;-99.222;2022-10-26T00:06:05;24.30;92.60
12413;DHT22;13877;18.896;-99.222;2022-10-26T00:08:33;24.20;92.80
12413;DHT22;13877;18.896;-99.222;2022-10-26T00:10:59;24.10;93.30
12413;DHT22;13877;18.896;-99.222;2022-10-26T00:13:26;24.10;93.40
12413;DHT22;13877;18.896;-99.222;2022-10-26T00:15:54;24.00;93.50
12413;DHT22;13877;18.896;-99.222;2022-10-26T00:18:21;23.90;93.40
12413;DHT22;13877;18.896;-99.222;2022-10-26T00:20:48;23.90;93.50
12413;DHT22;13877;18.896;-99.222;2022-10-26T00:23:15;23.80;93.90
12413;DHT22;13877;18.896;-99.222;2022-10-26T00:25:43;23.70;94.40
12413;DHT22;13877;18.896;-99.222;2022-10-26T00:28:10;23.70;94.60
12413;DHT22;13877;18.896;-99.222;2022-10-26T00:30:39;23.50;94.80
12413;DHT22;13877;18.896;-99.222;2022-10-26T00:33:11;23.30;95.00
12413;DHT22;13877;18.896;-99.222;2022-10-26T00:35:39;23.30;95.20
12413;DHT22;13877;18.896;-99.222;2022-10-26T00:38:05;23.20;95.00
12413;DHT22;13877;18.896;-99.222;2022-10-26T00:40:33;23.20;95.00
12413;DHT22;13877;18.896;-99.222;2022-10-26T00:42:59;23.30;95.60
12413;DHT22;13877;18.896;-99.222;2022-10-26T00:45:30;23.40;95.50
12413;DHT22;13877;18.896;-99.222;2022-10-26T00:48:03;23.60;95.30
12413;DHT22;13877;18.896;-99.222;2022-10-26T00:50:35;23.70;95.10
12413;DHT22;13877;18.896;-99.222;2022-10-26T00:53:05;23.60;95.10
12413;DHT22;13877;18.896;-99.222;2022-10-26T00:55:36;23.60;95.20
12413;DHT22;13877;18.896;-99.222;2022-10-26T00:58:06;23.60;95.50
12413;DHT22;13877;18.896;-99.222;2022-10-26T01:00:34;23.60;95.70
12413;DHT22;13877;18.896;-99.222;2022-10-26T01:03:04;23.60;96.30
12413;DHT22;13877;18.896;-99.222;2022-10-26T01:05:33;23.60;96.30
12413;DHT22;13877;18.896;-99.222;2022-10-26T01:08:02;23.60;96.20
12413;DHT22;13877;18.896;-99.222;2022-10-26T01:10:29;23.70;96.20
12413;DHT22;13877;18.896;-99.222;2022-10-26T01:12:57;23.70;96.40
12413;DHT22;13877;18.896;-99.222;2022-10-26T01:15:47;23.70;96.50
12413;DHT22;13877;18.896;-99.222;2022-10-26T01:24:06;23.60;96.50
12413;DHT22;13877;18.896;-99.222;2022-10-26T01:27:00;23.60;96.40
12413;DHT22;13877;18.896;-99.222;2022-10-26T01:33:27;23.60;96.80
12413;DHT22;13877;18.896;-99.222;2022-10-26T01:41:20;23.40;97.40
12413;DHT22;13877;18.896;-99.222;2022-10-26T01:43:57;23.40;97.70
12413;DHT22;13877;18.896;-99.222;2022-10-26T01:46:27;23.40;98.10
12413;DHT22;13877;18.896;-99.222;2022-10-26T01:49:00;23.30;98.20
12413;DHT22;13877;18.896;-99.222;2022-10-26T01:51:29;23.40;98.50
12413;DHT22;13877;18.896;-99.222;2022-10-26T01:53:58;23.30;98.40
12413;DHT22;13877;18.896;-99.222;2022-10-26T01:56:29;23.30;99.10
12413;DHT22;13877;18.896;-99.222;2022-10-26T02:02:07;23.10;99.20
12413;DHT22;13877;18.896;-99.222;2022-10-26T02:10:38;22.90;99.80
12413;DHT22;13877;18.896;-99.222;2022-10-26T02:13:20;22.90;99.90
12413;DHT22;13877;18.896;-99.222;2022-10-26T02:15:56;22.90;99.90
12413;DHT22;13877;18.896;-99.222;2022-10-26T02:21:45;23.10;99.90
12413;DHT22;13877;18.896;-99.222;2022-10-26T02:24:16;23.10;99.80
12413;DHT22;13877;18.896;-99.222;2022-10-26T02:26:45;23.10;99.60
12413;DHT22;13877;18.896;-99.222;2022-10-26T02:29:16;23.10;99.50
12413;DHT22;13877;18.896;-99.222;2022-10-26T02:31:46;23.20;99.60
12413;DHT22;13877;18.896;-99.222;2022-10-26T02:34:19;23.20;99.60
12413;DHT22;13877;18.896;-99.222;2022-10-26T02:36:50;23.00;99.80
12413;DHT22;13877;18.896;-99.222;2022-10-26T02:39:20;22.90;99.60
12413;DHT22;13877;18.896;-99.222;2022-10-26T02:41:48;22.80;99.20
12413;DHT22;13877;18.896;-99.222;2022-10-26T02:44:28;22.70;99.10
12413;DHT22;13877;18.896;-99.222;2022-10-26T02:46:56;22.70;99.20
12413;DHT22;13877;18.896;-99.222;2022-10-26T02:49:23;22.60;98.90
12413;DHT22;13877;18.896;-99.222;2022-10-26T02:52:01;22.50;98.80
12413;DHT22;13877;18.896;-99.222;2022-10-26T02:55:03;22.40;98.70
12413;DHT22;13877;18.896;-99.222;2022-10-26T02:57:35;22.40;97.80
12413;DHT22;13877;18.896;-99.222;2022-10-26T03:00:13;22.50;97.70
12413;DHT22;13877;18.896;-99.222;2022-10-26T03:02:49;22.40;97.60
12413;DHT22;13877;18.896;-99.222;2022-10-26T03:05:20;22.30;97.30
12413;DHT22;13877;18.896;-99.222;2022-10-26T03:07:48;22.30;97.10
12413;DHT22;13877;18.896;-99.222;2022-10-26T03:10:15;22.30;96.90
12413;DHT22;13877;18.896;-99.222;2022-10-26T03:12:42;22.30;97.00
12413;DHT22;13877;18.896;-99.222;2022-10-26T03:15:09;22.40;97.20
12413;DHT22;13877;18.896;-99.222;2022-10-26T03:17:36;22.40;97.00
12413;DHT22;13877;18.896;-99.222;2022-10-26T03:20:03;22.50;97.00
12413;DHT22;13877;18.896;-99.222;2022-10-26T03:22:31;22.50;97.00
12413;DHT22;13877;18.896;-99.222;2022-10-26T03:24:57;22.40;97.20
12413;DHT22;13877;18.896;-99.222;2022-10-26T03:27:25;22.10;98.00
12413;DHT22;13877;18.896;-99.222;2022-10-26T03:29:52;21.90;98.40
12413;DHT22;13877;18.896;-99.222;2022-10-26T03:32:20;21.80;98.70
12413;DHT22;13877;18.896;-99.222;2022-10-26T03:34:46;21.70;98.90
12413;DHT22;13877;18.896;-99.222;2022-10-26T03:37:14;21.80;98.30
12413;DHT22;13877;18.896;-99.222;2022-10-26T03:39:40;21.90;97.70
12413;DHT22;13877;18.896;-99.222;2022-10-26T03:42:07;21.90;97.70
12413;DHT22;13877;18.896;-99.222;2022-10-26T03:44:34;21.90;97.50
12413;DHT22;13877;18.896;-99.222;2022-10-26T03:47:01;22.00;97.30
12413;DHT22;13877;18.896;-99.222;2022-10-26T03:49:28;22.10;97.10
12413;DHT22;13877;18.896;-99.222;2022-10-26T03:51:58;22.10;97.30
12413;DHT22;13877;18.896;-99.222;2022-10-26T03:54:24;21.90;97.70
12413;DHT22;13877;18.896;-99.222;2022-10-26T03:56:52;21.70;98.00
12413;DHT22;13877;18.896;-99.222;2022-10-26T03:59:18;21.70;98.10
12413;DHT22;13877;18.896;-99.222;2022-10-26T04:01:49;21.70;98.00
12413;DHT22;13877;18.896;-99.222;2022-10-26T04:04:16;21.70;97.50
12413;DHT22;13877;18.896;-99.222;2022-10-26T04:06:43;21.80;97.50
12413;DHT22;13877;18.896;-99.222;2022-10-26T04:09:10;21.80;96.80
12413;DHT22;13877;18.896;-99.222;2022-10-26T04:11:36;21.90;96.60
12413;DHT22;13877;18.896;-99.222;2022-10-26T04:14:03;21.90;96.30
12413;DHT22;13877;18.896;-99.222;2022-10-26T04:16:31;21.90;96.00
12413;DHT22;13877;18.896;-99.222;2022-10-26T04:18:59;21.80;96.20
12413;DHT22;13877;18.896;-99.222;2022-10-26T04:21:26;21.70;96.30
12413;DHT22;13877;18.896;-99.222;2022-10-26T04:23:53;21.70;96.30
12413;DHT22;13877;18.896;-99.222;2022-10-26T04:26:20;21.70;96.30
12413;DHT22;13877;18.896;-99.222;2022-10-26T04:28:49;21.70;96.00
12413;DHT22;13877;18.896;-99.222;2022-10-26T04:31:17;21.60;96.10
12413;DHT22;13877;18.896;-99.222;2022-10-26T04:33:43;21.60;96.30
12413;DHT22;13877;18.896;-99.222;2022-10-26T04:36:11;21.50;96.30
12413;DHT22;13877;18.896;-99.222;2022-10-26T04:38:37;21.60;96.30
12413;DHT22;13877;18.896;-99.222;2022-10-26T04:41:04;21.60;95.80
12413;DHT22;13877;18.896;-99.222;2022-10-26T04:43:31;21.70;95.70
12413;DHT22;13877;18.896;-99.222;2022-10-26T04:45:58;21.80;95.50
12413;DHT22;13877;18.896;-99.222;2022-10-26T04:48:28;21.90;95.30
12413;DHT22;13877;18.896;-99.222;2022-10-26T04:50:58;21.80;95.00
12413;DHT22;13877;18.896;-99.222;2022-10-26T04:53:27;21.80;95.00
12413;DHT22;13877;18.896;-99.222;2022-10-26T04:55:59;21.70;94.90
12413;DHT22;13877;18.896;-99.222;2022-10-26T04:58:27;21.80;94.90
12413;DHT22;13877;18.896;-99.222;2022-10-26T05:00:54;21.80;95.10
12413;DHT22;13877;18.896;-99.222;2022-10-26T05:03:21;21.70;94.90
12413;DHT22;13877;18.896;-99.222;2022-10-26T05:05:48;21.80;94.90
12413;DHT22;13877;18.896;-99.222;2022-10-26T05:08:15;21.80;94.80
12413;DHT22;13877;18.896;-99.222;2022-10-26T05:10:46;21.80;94.70
12413;DHT22;13877;18.896;-99.222;2022-10-26T05:13:13;21.80;94.80
12413;DHT22;13877;18.896;-99.222;2022-10-26T05:15:40;21.80;94.70
12413;DHT22;13877;18.896;-99.222;2022-10-26T05:18:11;21.80;94.70
12413;DHT22;13877;18.896;-99.222;2022-10-26T05:20:38;22.00;94.70
12413;DHT22;13877;18.896;-99.222;2022-10-26T05:23:06;22.00;94.50
12413;DHT22;13877;18.896;-99.222;2022-10-26T05:25:36;22.10;94.10
12413;DHT22;13877;18.896;-99.222;2022-10-26T05:28:06;22.20;94.00
12413;DHT22;13877;18.896;-99.222;2022-10-26T05:30:35;22.30;94.00
12413;DHT22;13877;18.896;-99.222;2022-10-26T05:33:02;22.30;94.10
12413;DHT22;13877;18.896;-99.222;2022-10-26T05:35:31;22.30;93.70
12413;DHT22;13877;18.896;-99.222;2022-10-26T05:37:59;22.30;93.60
12413;DHT22;13877;18.896;-99.222;2022-10-26T05:40:29;22.30;93.50
12413;DHT22;13877;18.896;-99.222;2022-10-26T05:43:00;22.40;93.30
12413;DHT22;13877;18.896;-99.222;2022-10-26T05:45:30;22.40;93.40
12413;DHT22;13877;18.896;-99.222;2022-10-26T05:47:56;22.40;92.90
12413;DHT22;13877;18.896;-99.222;2022-10-26T05:50:23;22.40;92.80
12413;DHT22;13877;18.896;-99.222;2022-10-26T05:52:50;22.30;92.90
12413;DHT22;13877;18.896;-99.222;2022-10-26T05:55:17;22.30;92.90
12413;DHT22;13877;18.896;-99.222;2022-10-26T05:57:44;22.30;92.30
12413;DHT22;13877;18.896;-99.222;2022-10-26T06:00:31;22.30;92.30
12413;DHT22;13877;18.896;-99.222;2022-10-26T06:05:54;22.40;92.30
12413;DHT22;13877;18.896;-99.222;2022-10-26T06:08:23;22.40;92.50
12413;DHT22;13877;18.896;-99.222;2022-10-26T06:10:51;22.40;92.50
12413;DHT22;13877;18.896;-99.222;2022-10-26T06:13:20;22.40;92.40
12413;DHT22;13877;18.896;-99.222;2022-10-26T06:26:49;22.40;92.10
12413;DHT22;13877;18.896;-99.222;2022-10-26T06:29:37;22.40;92.60
12413;DHT22;13877;18.896;-99.222;2022-10-26T06:32:08;22.30;92.60
12413;DHT22;13877;18.896;-99.222;2022-10-26T06:34:38;22.20;92.40
12413;DHT22;13877;18.896;-99.222;2022-10-26T06:37:09;22.30;92.50
12413;DHT22;13877;18.896;-99.222;2022-10-26T06:39:41;22.20;92.10
12413;DHT22;13877;18.896;-99.222;2022-10-26T06:42:10;22.30;91.90
12413;DHT22;13877;18.896;-99.222;2022-10-26T06:44:38;22.50;91.80
12413;DHT22;13877;18.896;-99.222;2022-10-26T06:47:11;22.50;92.00
12413;DHT22;13877;18.896;-99.222;2022-10-26T06:50:00;22.40;91.90
12413;DHT22;13877;18.896;-99.222;2022-10-26T06:52:36;22.50;91.90
12413;DHT22;13877;18.896;-99.222;2022-10-26T06:55:12;22.60;93.50
12413;DHT22;13877;18.896;-99.222;2022-10-26T06:57:42;22.30;94.10
12413;DHT22;13877;18.896;-99.222;2022-10-26T07:00:20;22.10;94.40
12413;DHT22;13877;18.896;-99.222;2022-10-26T07:02:48;22.00;94.90
12413;DHT22;13877;18.896;-99.222;2022-10-26T07:05:15;21.90;93.90
12413;DHT22;13877;18.896;-99.222;2022-10-26T07:07:46;22.00;94.30
12413;DHT22;13877;18.896;-99.222;2022-10-26T07:10:16;22.00;94.80
12413;DHT22;13877;18.896;-99.222;2022-10-26T07:12:43;22.10;95.20
12413;DHT22;13877;18.896;-99.222;2022-10-26T07:15:10;22.10;95.50
12413;DHT22;13877;18.896;-99.222;2022-10-26T07:17:43;22.00;95.50
12413;DHT22;13877;18.896;-99.222;2022-10-26T07:20:16;22.00;96.10
12413;DHT22;13877;18.896;-99.222;2022-10-26T07:22:44;21.80;96.50
12413;DHT22;13877;18.896;-99.222;2022-10-26T07:25:11;21.80;97.70
12413;DHT22;13877;18.896;-99.222;2022-10-26T07:27:39;21.70;98.60
12413;DHT22;13877;18.896;-99.222;2022-10-26T07:30:06;21.70;99.50
12413;DHT22;13877;18.896;-99.222;2022-10-26T07:32:33;21.70;99.90
12413;DHT22;13877;18.896;-99.222;2022-10-26T07:35:00;21.70;99.90
12413;DHT22;13877;18.896;-99.222;2022-10-26T07:37:27;21.70;99.90
12413;DHT22;13877;18.896;-99.222;2022-10-26T07:39:54;21.60;99.90
12413;DHT22;13877;18.896;-99.222;2022-10-26T07:42:21;21.40;99.90
12413;DHT22;13877;18.896;-99.222;2022-10-26T07:44:48;21.20;99.90
12413;DHT22;13877;18.896;-99.222;2022-10-26T07:47:18;21.00;99.90
12413;DHT22;13877;18.896;-99.222;2022-10-26T07:49:45;20.80;99.90
12413;DHT22;13877;18.896;-99.222;2022-10-26T07:52:12;20.80;99.90
12413;DHT22;13877;18.896;-99.222;2022-10-26T07:54:38;20.70;99.90
12413;DHT22;13877;18.896;-99.222;2022-10-26T07:57:06;20.30;99.90
12413;DHT22;13877;18.896;-99.222;2022-10-26T07:59:33;19.60;99.90
12413;DHT22;13877;18.896;-99.222;2022-10-26T08:02:00;19.10;99.90
12413;DHT22;13877;18.896;-99.222;2022-10-26T08:04:26;18.80;99.90
12413;DHT22;13877;18.896;-99.222;2022-10-26T08:06:54;18.70;99.90
12413;DHT22;13877;18.896;-99.222;2022-10-26T08:09:20;18.60;99.90
12413;DHT22;13877;18.896;-99.222;2022-10-26T08:11:48;18.60;99.90
12413;DHT22;13877;18.896;-99.222;2022-10-26T08:14:18;18.70;99.90
12413;DHT22;13877;18.896;-99.222;2022-10-26T08:16:45;18.90;99.90
12413;DHT22;13877;18.896;-99.222;2022-10-26T08:19:13;18.80;99.90
12413;DHT22;13877;18.896;-99.222;2022-10-26T08:21:40;18.70;99.90
12413;DHT22;13877;18.896;-99.222;2022-10-26T08:24:07;18.70;99.90
12413;DHT22;13877;18.896;-99.222;2022-10-26T08:26:34;18.70;99.90
12413;DHT22;13877;18.896;-99.222;2022-10-26T08:29:01;18.90;99.90
12413;DHT22;13877;18.896;-99.222;2022-10-26T08:31:28;19.00;99.90
12413;DHT22;13877;18.896;-99.222;2022-10-26T08:33:55;18.90;99.90
12413;DHT22;13877;18.896;-99.222;2022-10-26T08:36:24;18.90;99.90
12413;DHT22;13877;18.896;-99.222;2022-10-26T08:38:51;18.90;99.90
12413;DHT22;13877;18.896;-99.222;2022-10-26T08:41:30;19.00;99.90
12413;DHT22;13877;18.896;-99.222;2022-10-26T08:46:47;19.30;99.90
12413;DHT22;13877;18.896;-99.222;2022-10-26T08:49:26;19.30;99.90
12413;DHT22;13877;18.896;-99.222;2022-10-26T08:51:58;19.30;99.90
12413;DHT22;13877;18.896;-99.222;2022-10-26T08:54:42;19.20;99.90
12413;DHT22;13877;18.896;-99.222;2022-10-26T08:57:39;19.20;99.90
12413;DHT22;13877;18.896;-99.222;2022-10-26T09:00:27;19.10;99.90
12413;DHT22;13877;18.896;-99.222;2022-10-26T09:02:55;19.10;99.90
12413;DHT22;13877;18.896;-99.222;2022-10-26T09:05:28;19.20;99.90
12413;DHT22;13877;18.896;-99.222;2022-10-26T09:08:24;19.40;99.90
12413;DHT22;13877;18.896;-99.222;2022-10-26T09:20:45;19.70;99.90
12413;DHT22;13877;18.896;-99.222;2022-10-26T09:23:19;19.80;99.90
12413;DHT22;13877;18.896;-99.222;2022-10-26T09:25:58;19.70;99.90
12413;DHT22;13877;18.896;-99.222;2022-10-26T09:28:30;19.70;99.90
12413;DHT22;13877;18.896;-99.222;2022-10-26T09:31:00;19.80;99.90
12413;DHT22;13877;18.896;-99.222;2022-10-26T09:33:28;19.80;99.90
12413;DHT22;13877;18.896;-99.222;2022-10-26T09:36:03;19.80;99.90
12413;DHT22;13877;18.896;-99.222;2022-10-26T09:46:17;20.00;99.90
12413;DHT22;13877;18.896;-99.222;2022-10-26T09:48:51;20.00;99.90
12413;DHT22;13877;18.896;-99.222;2022-10-26T09:51:19;20.00;99.90
12413;DHT22;13877;18.896;-99.222;2022-10-26T09:53:47;20.00;99.90
12413;DHT22;13877;18.896;-99.222;2022-10-26T09:56:16;20.00;99.90
12413;DHT22;13877;18.896;-99.222;2022-10-26T09:58:52;20.10;99.90
12413;DHT22;13877;18.896;-99.222;2022-10-26T10:01:33;20.10;99.90
12413;DHT22;13877;18.896;-99.222;2022-10-26T10:04:19;20.20;99.90
12413;DHT22;13877;18.896;-99.222;2022-10-26T10:06:48;20.20;99.90
12413;DHT22;13877;18.896;-99.222;2022-10-26T10:09:19;20.20;99.90
12413;DHT22;13877;18.896;-99.222;2022-10-26T10:11:47;20.20;99.90
12413;DHT22;13877;18.896;-99.222;2022-10-26T10:14:22;20.30;99.90
12413;DHT22;13877;18.896;-99.222;2022-10-26T10:16:59;20.20;99.90
12413;DHT22;13877;18.896;-99.222;2022-10-26T10:19:31;20.30;99.90
12413;DHT22;13877;18.896;-99.222;2022-10-26T10:21:59;20.30;99.90
12413;DHT22;13877;18.896;-99.222;2022-10-26T10:24:31;20.20;99.90
12413;DHT22;13877;18.896;-99.222;2022-10-26T10:27:01;20.30;99.90
12413;DHT22;13877;18.896;-99.222;2022-10-26T10:29:38;20.20;99.90
12413;DHT22;13877;18.896;-99.222;2022-10-26T10:32:10;20.30;99.90
12413;DHT22;13877;18.896;-99.222;2022-10-26T10:34:40;20.30;99.90
12413;DHT22;13877;18.896;-99.222;2022-10-26T10:37:22;20.20;99.90
12413;DHT22;13877;18.896;-99.222;2022-10-26T10:39:50;20.20;99.90
12413;DHT22;13877;18.896;-99.222;2022-10-26T10:42:20;20.20;99.90
12413;DHT22;13877;18.896;-99.222;2022-10-26T10:44:53;20.10;99.90
12413;DHT22;13877;18.896;-99.222;2022-10-26T10:47:27;20.00;99.90
12413;DHT22;13877;18.896;-99.222;2022-10-26T10:50:03;20.00;99.90
12413;DHT22;13877;18.896;-99.222;2022-10-26T10:52:34;19.90;99.90
12413;DHT22;13877;18.896;-99.222;2022-10-26T10:55:20;19.90;99.90
12413;DHT22;13877;18.896;-99.222;2022-10-26T10:58:07;19.90;99.90
12413;DHT22;13877;18.896;-99.222;2022-10-26T11:00:41;19.90;99.90
12413;DHT22;13877;18.896;-99.222;2022-10-26T11:08:44;19.70;99.90
12413;DHT22;13877;18.896;-99.222;2022-10-26T11:11:37;19.80;99.90
12413;DHT22;13877;18.896;-99.222;2022-10-26T11:17:15;19.60;99.90
12413;DHT22;13877;18.896;-99.222;2022-10-26T11:20:03;19.50;99.90
12413;DHT22;13877;18.896;-99.222;2022-10-26T11:22:38;19.40;99.90
12413;DHT22;13877;18.896;-99.222;2022-10-26T11:25:27;19.40;99.90
12413;DHT22;13877;18.896;-99.222;2022-10-26T11:28:00;19.30;99.90
12413;DHT22;13877;18.896;-99.222;2022-10-26T11:30:33;19.30;99.90
12413;DHT22;13877;18.896;-99.222;2022-10-26T11:33:19;19.30;99.90
12413;DHT22;13877;18.896;-99.222;2022-10-26T11:36:08;19.30;99.90
12413;DHT22;13877;18.896;-99.222;2022-10-26T11:41:20;19.30;99.90
12413;DHT22;13877;18.896;-99.222;2022-10-26T11:44:28;19.20;99.90
12413;DHT22;13877;18.896;-99.222;2022-10-26T11:47:02;19.30;99.90
12413;DHT22;13877;18.896;-99.222;2022-10-26T11:52:15;19.30;99.90
12413;DHT22;13877;18.896;-99.222;2022-10-26T11:57:18;19.00;99.90
12413;DHT22;13877;18.896;-99.222;2022-10-26T12:00:04;18.90;99.90
12413;DHT22;13877;18.896;-99.222;2022-10-26T12:03:02;18.80;99.90
12413;DHT22;13877;18.896;-99.222;2022-10-26T12:11:16;18.60;99.90
12413;DHT22;13877;18.896;-99.222;2022-10-26T12:19:30;18.70;99.90
12413;DHT22;13877;18.896;-99.222;2022-10-26T12:21:59;18.70;99.90
12413;DHT22;13877;18.896;-99.222;2022-10-26T12:24:30;18.70;99.90
12413;DHT22;13877;18.896;-99.222;2022-10-26T12:27:05;18.70;99.90
12413;DHT22;13877;18.896;-99.222;2022-10-26T12:29:34;18.80;99.90
12413;DHT22;13877;18.896;-99.222;2022-10-26T12:32:04;18.90;99.90
12413;DHT22;13877;18.896;-99.222;2022-10-26T12:37:34;19.00;99.90
12413;DHT22;13877;18.896;-99.222;2022-10-26T12:45:46;19.10;99.90
12413;DHT22;13877;18.896;-99.222;2022-10-26T12:48:48;19.10;99.90
12413;DHT22;13877;18.896;-99.222;2022-10-26T12:54:29;19.20;99.90
12413;DHT22;13877;18.896;-99.222;2022-10-26T12:57:26;19.10;99.90
12413;DHT22;13877;18.896;-99.222;2022-10-26T13:00:03;19.10;99.90
12413;DHT22;13877;18.896;-99.222;2022-10-26T13:08:14;19.20;99.90
12413;DHT22;13877;18.896;-99.222;2022-10-26T13:13:29;19.10;99.90
12413;DHT22;13877;18.896;-99.222;2022-10-26T13:15:58;19.20;99.90
12413;DHT22;13877;18.896;-99.222;2022-10-26T13:18:26;19.30;99.90
12413;DHT22;13877;18.896;-99.222;2022-10-26T13:21:07;19.40;99.90
12413;DHT22;13877;18.896;-99.222;2022-10-26T13:23:45;19.50;99.90
12413;DHT22;13877;18.896;-99.222;2022-10-26T13:26:18;19.50;99.90
12413;DHT22;13877;18.896;-99.222;2022-10-26T13:28:56;19.60;99.90
12413;DHT22;13877;18.896;-99.222;2022-10-26T13:34:03;19.80;99.90
12413;DHT22;13877;18.896;-99.222;2022-10-26T13:39:26;19.90;99.90
12413;DHT22;13877;18.896;-99.222;2022-10-26T13:41:55;20.00;99.90
12413;DHT22;13877;18.896;-99.222;2022-10-26T13:45:04;20.10;99.90
12413;DHT22;13877;18.896;-99.222;2022-10-26T13:47:44;20.20;99.90
12413;DHT22;13877;18.896;-99.222;2022-10-26T13:50:21;20.30;99.90
12413;DHT22;13877;18.896;-99.222;2022-10-26T13:53:10;20.40;99.90
12413;DHT22;13877;18.896;-99.222;2022-10-26T13:55:54;20.50;99.90
12413;DHT22;13877;18.896;-99.222;2022-10-26T13:58:51;20.60;99.90
12413;DHT22;13877;18.896;-99.222;2022-10-26T14:01:24;20.70;99.90
12413;DHT22;13877;18.896;-99.222;2022-10-26T14:03:52;20.80;99.90
12413;DHT22;13877;18.896;-99.222;2022-10-26T14:09:13;21.00;99.90
12413;DHT22;13877;18.896;-99.222;2022-10-26T14:11:50;21.00;99.90
12413;DHT22;13877;18.896;-99.222;2022-10-26T14:14:24;21.10;99.90
12413;DHT22;13877;18.896;-99.222;2022-10-26T14:16:52;21.10;99.90
12413;DHT22;13877;18.896;-99.222;2022-10-26T14:19:27;21.10;99.90
12413;DHT22;13877;18.896;-99.222;2022-10-26T14:21:54;21.10;99.90
12413;DHT22;13877;18.896;-99.222;2022-10-26T14:24:30;21.10;99.90
12413;DHT22;13877;18.896;-99.222;2022-10-26T14:26:58;21.10;99.90
12413;DHT22;13877;18.896;-99.222;2022-10-26T14:29:26;21.10;99.90
12413;DHT22;13877;18.896;-99.222;2022-10-26T14:31:55;21.20;99.90
12413;DHT22;13877;18.896;-99.222;2022-10-26T14:34:22;21.20;99.90
12413;DHT22;13877;18.896;-99.222;2022-10-26T14:37:02;21.30;99.90
12413;DHT22;13877;18.896;-99.222;2022-10-26T14:39:34;21.40;99.90
12413;DHT22;13877;18.896;-99.222;2022-10-26T14:42:12;21.40;99.90
12413;DHT22;13877;18.896;-99.222;2022-10-26T14:44:42;21.50;99.90
12413;DHT22;13877;18.896;-99.222;2022-10-26T14:47:22;21.60;99.90
12413;DHT22;13877;18.896;-99.222;2022-10-26T14:49:53;21.70;99.90
12413;DHT22;13877;18.896;-99.222;2022-10-26T14:52:38;21.90;99.90
12413;DHT22;13877;18.896;-99.222;2022-10-26T14:55:15;22.10;99.90
12413;DHT22;13877;18.896;-99.222;2022-10-26T14:57:46;22.00;99.90
12413;DHT22;13877;18.896;-99.222;2022-10-26T15:00:15;22.20;99.90
12413;DHT22;13877;18.896;-99.222;2022-10-26T15:02:43;22.40;99.90
12413;DHT22;13877;18.896;-99.222;2022-10-26T15:05:26;22.70;99.90
12413;DHT22;13877;18.896;-99.222;2022-10-26T15:07:59;22.80;99.90
12413;DHT22;13877;18.896;-99.222;2022-10-26T15:15:37;23.20;99.90
12413;DHT22;13877;18.896;-99.222;2022-10-26T15:18:05;23.30;99.90
12413;DHT22;13877;18.896;-99.222;2022-10-26T15:20:46;23.40;99.90
12413;DHT22;13877;18.896;-99.222;2022-10-26T15:23:16;23.60;99.90
12413;DHT22;13877;18.896;-99.222;2022-10-26T15:25:54;23.90;99.90
12413;DHT22;13877;18.896;-99.222;2022-10-26T15:28:38;24.10;99.40
12413;DHT22;13877;18.896;-99.222;2022-10-26T15:36:32;23.90;96.60
12413;DHT22;13877;18.896;-99.222;2022-10-26T15:39:01;23.80;96.80
12413;DHT22;13877;18.896;-99.222;2022-10-26T15:41:37;24.10;98.80
12413;DHT22;13877;18.896;-99.222;2022-10-26T15:44:12;24.40;98.20
12413;DHT22;13877;18.896;-99.222;2022-10-26T15:46:44;24.70;97.90
12413;DHT22;13877;18.896;-99.222;2022-10-26T15:49:19;25.00;95.80
12413;DHT22;13877;18.896;-99.222;2022-10-26T15:51:47;25.20;95.60
12413;DHT22;13877;18.896;-99.222;2022-10-26T15:54:14;25.30;95.70
12413;DHT22;13877;18.896;-99.222;2022-10-26T15:56:42;25.50;96.20
12413;DHT22;13877;18.896;-99.222;2022-10-26T15:59:17;25.70;95.10
12413;DHT22;13877;18.896;-99.222;2022-10-26T16:01:44;26.10;94.80
12413;DHT22;13877;18.896;-99.222;2022-10-26T16:04:12;26.30;94.50
12413;DHT22;13877;18.896;-99.222;2022-10-26T16:06:41;26.60;93.80
12413;DHT22;13877;18.896;-99.222;2022-10-26T16:09:13;26.80;92.60
12413;DHT22;13877;18.896;-99.222;2022-10-26T16:11:43;26.60;93.10
12413;DHT22;13877;18.896;-99.222;2022-10-26T16:14:10;26.50;93.10
12413;DHT22;13877;18.896;-99.222;2022-10-26T16:16:38;26.60;93.00
12413;DHT22;13877;18.896;-99.222;2022-10-26T16:19:05;26.40;92.60
12413;DHT22;13877;18.896;-99.222;2022-10-26T16:21:33;26.20;93.80
12413;DHT22;13877;18.896;-99.222;2022-10-26T16:24:00;26.10;93.20
12413;DHT22;13877;18.896;-99.222;2022-10-26T16:26:27;26.20;92.70
12413;DHT22;13877;18.896;-99.222;2022-10-26T16:28:55;26.50;92.70
12413;DHT22;13877;18.896;-99.222;2022-10-26T16:31:22;26.70;92.50
12413;DHT22;13877;18.896;-99.222;2022-10-26T16:33:50;26.80;91.80
12413;DHT22;13877;18.896;-99.222;2022-10-26T16:36:17;26.80;91.00
12413;DHT22;13877;18.896;-99.222;2022-10-26T16:38:44;26.80;91.20
12413;DHT22;13877;18.896;-99.222;2022-10-26T16:41:14;26.60;90.90
12413;DHT22;13877;18.896;-99.222;2022-10-26T16:43:45;26.40;91.20
12413;DHT22;13877;18.896;-99.222;2022-10-26T16:46:21;26.60;91.00
12413;DHT22;13877;18.896;-99.222;2022-10-26T16:48:49;27.10;91.40
12413;DHT22;13877;18.896;-99.222;2022-10-26T16:51:24;26.80;91.50
12413;DHT22;13877;18.896;-99.222;2022-10-26T16:53:53;26.60;91.40
12413;DHT22;13877;18.896;-99.222;2022-10-26T16:56:22;27.00;90.00
12413;DHT22;13877;18.896;-99.222;2022-10-26T16:58:53;27.50;89.00
12413;DHT22;13877;18.896;-99.222;2022-10-26T17:01:21;28.00;89.70
12413;DHT22;13877;18.896;-99.222;2022-10-26T17:03:49;28.10;88.40
12413;DHT22;13877;18.896;-99.222;2022-10-26T17:06:17;28.50;86.80
12413;DHT22;13877;18.896;-99.222;2022-10-26T17:08:44;28.40;87.60
12413;DHT22;13877;18.896;-99.222;2022-10-26T17:11:17;29.20;86.40
12413;DHT22;13877;18.896;-99.222;2022-10-26T17:13:45;29.10;89.50
12413;DHT22;13877;18.896;-99.222;2022-10-26T17:16:19;28.10;89.60
12413;DHT22;13877;18.896;-99.222;2022-10-26T17:18:49;28.40;86.40
12413;DHT22;13877;18.896;-99.222;2022-10-26T17:21:19;28.20;90.10
12413;DHT22;13877;18.896;-99.222;2022-10-26T17:23:49;28.00;88.20
12413;DHT22;13877;18.896;-99.222;2022-10-26T17:26:16;27.40;90.10
12413;DHT22;13877;18.896;-99.222;2022-10-26T17:28:49;27.40;90.70
12413;DHT22;13877;18.896;-99.222;2022-10-26T17:31:16;27.20;90.00
12413;DHT22;13877;18.896;-99.222;2022-10-26T17:33:45;27.10;90.70
12413;DHT22;13877;18.896;-99.222;2022-10-26T17:36:18;27.20;89.30
12413;DHT22;13877;18.896;-99.222;2022-10-26T17:38:48;27.40;90.80